createdAt,value
2022-08-19T00:00:13.622Z,91.50
2022-08-19T00:01:13.623Z,91.50
2022-08-19T00:02:13.592Z,91.50
2022-08-19T00:03:16.622Z,91.60
2022-08-19T00:04:16.633Z,91.70
2022-08-19T00:05:13.583Z,91.80
2022-08-19T00:06:13.554Z,91.50
2022-08-19T00:07:13.532Z,91.50
2022-08-19T00:08:13.515Z,91.60
2022-08-19T00:09:13.515Z,91.70
2022-08-19T00:10:13.515Z,91.70
2022-08-19T00:11:18.680Z,91.70
2022-08-19T00:12:14.474Z,91.80
2022-08-19T00:13:13.449Z,91.80
2022-08-19T00:14:13.438Z,92.00
2022-08-19T00:15:13.463Z,92.10
2022-08-19T00:16:13.408Z,92.20
2022-08-19T00:17:13.419Z,92.20
2022-08-19T00:18:13.380Z,92.30
2022-08-19T00:19:13.370Z,92.45
2022-08-19T00:20:13.357Z,92.50
2022-08-19T00:21:13.401Z,92.50
2022-08-19T00:22:13.333Z,92.40
2022-08-19T00:23:16.312Z,92.60
2022-08-19T00:24:16.315Z,92.60
2022-08-19T00:25:13.299Z,92.50
2022-08-19T00:26:13.273Z,92.30
2022-08-19T00:27:26.533Z,92.40
2022-08-19T00:28:14.254Z,92.40
2022-08-19T00:29:13.249Z,92.40
2022-08-19T00:30:13.215Z,92.50
2022-08-19T00:31:13.206Z,92.60
2022-08-19T00:32:13.233Z,92.50
2022-08-19T00:33:13.206Z,92.55
2022-08-19T00:34:13.197Z,92.60
2022-08-19T00:35:13.150Z,92.75
2022-08-19T00:36:13.138Z,92.80
2022-08-19T00:37:13.118Z,92.85
2022-08-19T00:38:13.107Z,92.80
2022-08-19T00:39:13.169Z,92.91
2022-08-19T00:40:13.110Z,93.01
2022-08-19T00:41:13.061Z,93.11
2022-08-19T00:42:15.679Z,93.21
2022-08-19T00:43:16.039Z,93.11
2022-08-19T00:44:16.092Z,93.11
2022-08-19T00:45:13.010Z,93.11
2022-08-19T00:46:12.994Z,93.01
2022-08-19T00:47:14.284Z,92.91
2022-08-19T00:48:14.936Z,92.80
2022-08-19T00:49:12.968Z,92.76
2022-08-19T00:50:12.935Z,92.60
2022-08-19T00:51:12.925Z,92.60
2022-08-19T00:52:12.918Z,92.50
2022-08-19T00:53:12.925Z,92.40
2022-08-19T00:54:12.882Z,92.46
2022-08-19T00:55:12.874Z,92.56
2022-08-19T00:56:12.874Z,92.56
2022-08-19T00:57:12.877Z,92.56
2022-08-19T00:58:12.896Z,92.56
2022-08-19T00:59:12.834Z,92.66
2022-08-19T01:00:12.799Z,92.46
2022-08-19T01:01:12.826Z,92.36
2022-08-19T01:02:12.777Z,92.46
2022-08-19T01:03:15.791Z,92.46
2022-08-19T01:04:15.769Z,92.26
2022-08-19T01:05:12.737Z,92.26
2022-08-19T01:06:12.721Z,92.16
2022-08-19T01:07:15.206Z,92.06
2022-08-19T01:08:13.727Z,92.30
2022-08-19T01:09:12.683Z,92.40
2022-08-19T01:10:12.678Z,92.40
2022-08-19T01:11:12.688Z,92.50
2022-08-19T01:12:12.643Z,92.40
2022-08-19T01:13:12.653Z,92.40
2022-08-19T01:14:12.614Z,92.71
2022-08-19T01:15:12.616Z,92.91
2022-08-19T01:16:12.585Z,92.91
2022-08-19T01:17:12.576Z,92.91
2022-08-19T01:18:12.575Z,92.91
2022-08-19T01:19:12.570Z,92.80
2022-08-19T01:20:12.526Z,92.71
2022-08-19T01:21:12.518Z,92.80
2022-08-19T01:22:14.195Z,92.91
2022-08-19T01:23:15.508Z,93.01
2022-08-19T01:24:15.524Z,93.01
2022-08-19T01:25:14.843Z,93.01
2022-08-19T01:26:12.442Z,92.91
2022-08-19T01:27:12.460Z,93.01
2022-08-19T01:28:12.419Z,93.01
2022-08-19T01:29:12.438Z,93.11
2022-08-19T01:30:12.390Z,93.11
2022-08-19T01:31:12.380Z,93.11
2022-08-19T01:32:33.173Z,92.91
2022-08-19T01:33:13.392Z,92.71
2022-08-19T01:34:12.333Z,92.55
2022-08-19T01:35:12.343Z,92.75
2022-08-19T01:36:12.314Z,92.95
2022-08-19T01:37:12.287Z,92.95
2022-08-19T01:38:12.469Z,92.95
2022-08-19T01:39:12.280Z,92.95
2022-08-19T01:40:12.326Z,92.85
2022-08-19T01:41:12.225Z,92.91
2022-08-19T01:42:12.231Z,92.91
2022-08-19T01:43:15.198Z,92.85
2022-08-19T01:44:18.794Z,92.45
2022-08-19T01:45:12.167Z,92.55
2022-08-19T01:46:12.318Z,92.55
2022-08-19T01:47:12.175Z,92.75
2022-08-19T01:48:12.142Z,92.65
2022-08-19T01:49:12.118Z,92.65
2022-08-19T01:50:12.100Z,92.65
2022-08-19T01:51:12.095Z,92.45
2022-08-19T01:52:12.101Z,92.45
2022-08-19T01:53:12.103Z,92.45
2022-08-19T01:54:12.052Z,92.45
2022-08-19T01:55:12.053Z,92.65
2022-08-19T01:56:12.017Z,92.75
2022-08-19T01:57:12.002Z,92.75
2022-08-19T01:58:12.004Z,92.85
2022-08-19T01:59:12.033Z,92.95
2022-08-19T02:00:11.954Z,93.05
2022-08-19T02:01:11.988Z,92.85
2022-08-19T02:02:11.926Z,92.95
2022-08-19T02:03:14.946Z,92.99
2022-08-19T02:04:14.956Z,92.90
2022-08-19T02:05:11.884Z,92.99
2022-08-19T02:06:11.887Z,93.19
2022-08-19T02:07:11.854Z,93.30
2022-08-19T02:08:11.843Z,93.40
2022-08-19T02:09:11.836Z,93.50
2022-08-19T02:10:12.597Z,93.50
2022-08-19T02:11:11.798Z,93.60
2022-08-19T02:12:11.788Z,93.60
2022-08-19T02:13:11.770Z,93.60
2022-08-19T02:14:11.800Z,93.60
2022-08-19T02:15:11.752Z,93.60
2022-08-19T02:16:11.730Z,93.70
2022-08-19T02:17:11.715Z,93.60
2022-08-19T02:18:11.708Z,93.50
2022-08-19T02:19:11.695Z,93.40
2022-08-19T02:20:11.723Z,93.30
2022-08-19T02:21:11.653Z,93.26
2022-08-19T02:22:11.653Z,93.26
2022-08-19T02:23:16.157Z,93.26
2022-08-19T02:24:14.634Z,93.26
2022-08-19T02:25:11.606Z,93.05
2022-08-19T02:26:11.646Z,92.95
2022-08-19T02:27:11.577Z,92.95
2022-08-19T02:28:14.535Z,92.99
2022-08-19T02:29:12.547Z,92.99
2022-08-19T02:30:14.141Z,92.99
2022-08-19T02:31:11.527Z,93.19
2022-08-19T02:32:11.537Z,93.40
2022-08-19T02:33:11.497Z,93.40
2022-08-19T02:34:11.494Z,93.40
2022-08-19T02:35:12.183Z,93.60
2022-08-19T02:36:11.499Z,93.70
2022-08-19T02:37:11.430Z,93.60
2022-08-19T02:38:11.422Z,93.70
2022-08-19T02:39:11.434Z,93.70
2022-08-19T02:40:12.454Z,93.65
2022-08-19T02:41:11.400Z,93.95
2022-08-19T02:42:11.389Z,94.05
2022-08-19T02:43:14.350Z,94.05
2022-08-19T02:44:30.456Z,94.25
2022-08-19T02:45:12.314Z,94.25
2022-08-19T02:46:11.343Z,94.35
2022-08-19T02:47:11.293Z,94.35
2022-08-19T02:48:14.946Z,94.55
2022-08-19T02:49:12.327Z,94.55
2022-08-19T02:50:11.247Z,94.45
2022-08-19T02:51:11.238Z,94.45
2022-08-19T02:52:11.248Z,94.45
2022-08-19T02:53:11.215Z,94.55
2022-08-19T02:54:11.196Z,94.45
2022-08-19T02:55:11.204Z,94.05
2022-08-19T02:56:11.167Z,94.05
2022-08-19T02:57:11.190Z,94.05
2022-08-19T02:58:11.137Z,94.15
2022-08-19T02:59:11.536Z,93.95
2022-08-19T03:00:11.106Z,94.05
2022-08-19T03:01:11.107Z,94.15
2022-08-19T03:02:11.078Z,94.35
2022-08-19T03:03:14.098Z,94.25
2022-08-19T03:04:14.072Z,94.35
2022-08-19T03:05:11.030Z,94.25
2022-08-19T03:06:11.022Z,94.25
2022-08-19T03:07:11.466Z,94.35
2022-08-19T03:08:10.992Z,94.25
2022-08-19T03:09:10.981Z,94.35
2022-08-19T03:10:10.962Z,94.35
2022-08-19T03:11:10.943Z,94.45
2022-08-19T03:12:10.985Z,94.45
2022-08-19T03:13:10.916Z,94.55
2022-08-19T03:14:10.922Z,94.65
2022-08-19T03:15:10.886Z,94.65
2022-08-19T03:16:10.879Z,94.45
2022-08-19T03:17:10.871Z,94.35
2022-08-19T03:18:10.899Z,94.35
2022-08-19T03:19:10.839Z,94.45
2022-08-19T03:20:10.830Z,94.35
2022-08-19T03:21:12.366Z,94.40
2022-08-19T03:22:10.800Z,94.40
2022-08-19T03:23:13.841Z,94.40
2022-08-19T03:24:13.781Z,94.20
2022-08-19T03:25:10.750Z,94.00
2022-08-19T03:26:15.912Z,93.90
2022-08-19T03:27:11.721Z,93.90
2022-08-19T03:28:10.718Z,94.10
2022-08-19T03:29:10.732Z,94.25
2022-08-19T03:30:11.665Z,94.20
2022-08-19T03:31:43.806Z,94.40
2022-08-19T03:32:27.913Z,94.40
2022-08-19T03:33:11.643Z,94.31
2022-08-19T03:34:11.684Z,94.31
2022-08-19T03:35:10.613Z,94.20
2022-08-19T03:36:10.595Z,93.90
2022-08-19T03:37:10.586Z,93.80
2022-08-19T03:38:10.574Z,93.80
2022-08-19T03:39:10.557Z,93.74
2022-08-19T03:40:10.635Z,93.95
2022-08-19T03:41:11.525Z,93.90
2022-08-19T03:42:45.354Z,93.90
2022-08-19T03:43:14.497Z,93.90
2022-08-19T03:44:18.032Z,93.90
2022-08-19T03:45:11.469Z,94.00
2022-08-19T03:46:10.459Z,94.20
2022-08-19T03:47:10.440Z,94.20
2022-08-19T03:48:10.429Z,94.15
2022-08-19T03:49:10.411Z,94.00
2022-08-19T03:50:10.432Z,94.10
2022-08-19T03:51:10.410Z,94.10
2022-08-19T03:52:10.391Z,93.60
2022-08-19T03:53:10.352Z,93.44
2022-08-19T03:54:10.342Z,93.44
2022-08-19T03:55:10.505Z,93.54
2022-08-19T03:56:10.313Z,93.44
2022-08-19T03:57:10.292Z,93.44
2022-08-19T03:58:10.294Z,93.54
2022-08-19T03:59:10.286Z,93.74
2022-08-19T04:00:13.704Z,93.65
2022-08-19T04:01:10.461Z,93.54
2022-08-19T04:02:10.346Z,93.44
2022-08-19T04:03:13.242Z,93.34
2022-08-19T04:04:13.218Z,93.34
2022-08-19T04:05:10.186Z,93.04
2022-08-19T04:06:10.174Z,93.04
2022-08-19T04:07:10.231Z,92.94
2022-08-19T04:08:13.792Z,93.14
2022-08-19T04:09:10.130Z,93.34
2022-08-19T04:10:10.666Z,93.14
2022-08-19T04:11:10.100Z,93.14
2022-08-19T04:12:10.089Z,93.24
2022-08-19T04:13:10.113Z,93.34
2022-08-19T04:14:10.071Z,93.24
2022-08-19T04:15:10.069Z,93.04
2022-08-19T04:16:10.031Z,93.14
2022-08-19T04:17:10.013Z,93.24
2022-08-19T04:18:10.015Z,93.34
2022-08-19T04:19:09.985Z,93.24
2022-08-19T04:20:10.005Z,93.24
2022-08-19T04:21:09.954Z,92.94
2022-08-19T04:22:09.981Z,92.94
2022-08-19T04:23:12.925Z,93.04
2022-08-19T04:24:12.934Z,93.14
2022-08-19T04:25:09.918Z,92.94
2022-08-19T04:26:09.890Z,93.04
2022-08-19T04:27:09.906Z,93.14
2022-08-19T04:28:09.886Z,93.24
2022-08-19T04:29:12.554Z,93.34
2022-08-19T04:30:09.856Z,93.34
2022-08-19T04:31:09.815Z,93.24
2022-08-19T04:32:10.049Z,93.34
2022-08-19T04:33:09.790Z,93.44
2022-08-19T04:34:09.779Z,93.54
2022-08-19T04:35:18.483Z,93.54
2022-08-19T04:36:10.783Z,93.24
2022-08-19T04:37:09.731Z,92.94
2022-08-19T04:38:09.721Z,92.94
2022-08-19T04:39:09.709Z,92.74
2022-08-19T04:40:09.770Z,92.63
2022-08-19T04:41:09.702Z,92.74
2022-08-19T04:42:09.661Z,92.74
2022-08-19T04:43:12.643Z,92.74
2022-08-19T04:44:12.644Z,92.69
2022-08-19T04:45:12.510Z,92.43
2022-08-19T04:46:09.684Z,92.54
2022-08-19T04:47:11.079Z,92.54
2022-08-19T04:48:27.426Z,92.63
2022-08-19T04:49:13.242Z,92.63
2022-08-19T04:50:10.321Z,92.59
2022-08-19T04:51:09.556Z,92.74
2022-08-19T04:52:09.652Z,92.74
2022-08-19T04:53:09.506Z,92.94
2022-08-19T04:54:09.496Z,93.04
2022-08-19T04:55:09.489Z,93.24
2022-08-19T04:56:09.510Z,93.14
2022-08-19T04:57:09.622Z,93.24
2022-08-19T04:58:09.439Z,93.38
2022-08-19T04:59:09.420Z,93.69
2022-08-19T05:00:09.427Z,93.79
2022-08-19T05:01:09.486Z,93.99
2022-08-19T05:02:09.420Z,93.99
2022-08-19T05:03:12.412Z,93.99
2022-08-19T05:04:12.370Z,94.09
2022-08-19T05:05:09.348Z,93.89
2022-08-19T05:06:09.323Z,93.79
2022-08-19T05:07:09.319Z,93.69
2022-08-19T05:08:09.321Z,93.69
2022-08-19T05:09:09.313Z,93.79
2022-08-19T05:10:09.272Z,93.79
2022-08-19T05:11:09.258Z,93.79
2022-08-19T05:12:09.255Z,93.74
2022-08-19T05:13:09.224Z,93.85
2022-08-19T05:14:09.237Z,93.95
2022-08-19T05:15:09.195Z,93.95
2022-08-19T05:16:09.198Z,93.95
2022-08-19T05:17:26.453Z,93.65
2022-08-19T05:18:10.156Z,93.44
2022-08-19T05:19:09.164Z,93.34
2022-08-19T05:20:09.130Z,93.44
2022-08-19T05:21:09.109Z,93.44
2022-08-19T05:22:09.090Z,93.34
2022-08-19T05:23:13.331Z,93.34
2022-08-19T05:24:13.146Z,93.44
2022-08-19T05:25:13.400Z,93.24
2022-08-19T05:26:09.045Z,93.04
2022-08-19T05:27:09.022Z,93.04
2022-08-19T05:28:09.012Z,93.24
2022-08-19T05:29:08.995Z,93.14
2022-08-19T05:30:09.017Z,93.04
2022-08-19T05:31:08.993Z,93.14
2022-08-19T05:32:08.963Z,93.14
2022-08-19T05:33:08.962Z,93.08
2022-08-19T05:34:18.238Z,93.18
2022-08-19T05:35:09.985Z,93.18
2022-08-19T05:36:08.895Z,93.29
2022-08-19T05:37:08.897Z,93.29
2022-08-19T05:38:08.875Z,93.18
2022-08-19T05:39:08.879Z,93.29
2022-08-19T05:40:08.967Z,93.34
2022-08-19T05:41:08.826Z,93.44
2022-08-19T05:42:08.816Z,93.65
2022-08-19T05:43:11.801Z,93.65
2022-08-19T05:44:11.826Z,93.54
2022-08-19T05:45:08.821Z,93.54
2022-08-19T05:46:08.756Z,93.44
2022-08-19T05:47:08.740Z,93.34
2022-08-19T05:48:08.735Z,93.04
2022-08-19T05:49:08.801Z,93.04
2022-08-19T05:50:08.701Z,93.14
2022-08-19T05:51:08.713Z,93.04
2022-08-19T05:52:08.681Z,92.99
2022-08-19T05:53:08.664Z,92.99
2022-08-19T05:54:08.643Z,92.59
2022-08-19T05:55:08.643Z,92.09
2022-08-19T05:56:08.645Z,92.19
2022-08-19T05:57:08.633Z,92.09
2022-08-19T05:58:08.753Z,91.99
2022-08-19T05:59:08.572Z,91.58
2022-08-19T06:00:08.567Z,91.58
2022-08-19T06:01:08.555Z,91.69
2022-08-19T06:02:08.591Z,91.78
2022-08-19T06:03:12.724Z,91.58
2022-08-19T06:04:11.517Z,91.49
2022-08-19T06:05:08.487Z,91.14
2022-08-19T06:06:08.467Z,91.14
2022-08-19T06:07:11.940Z,90.64
2022-08-19T06:08:08.519Z,90.49
2022-08-19T06:09:08.431Z,90.09
2022-08-19T06:10:08.419Z,89.64
2022-08-19T06:11:08.400Z,89.34
2022-08-19T06:12:08.389Z,89.24
2022-08-19T06:13:08.378Z,88.79
2022-08-19T06:14:08.408Z,88.19
2022-08-19T06:15:09.351Z,87.79
2022-08-19T06:16:08.331Z,87.75
2022-08-19T06:17:08.327Z,86.85
2022-08-19T06:18:08.302Z,86.54
2022-08-19T06:19:08.293Z,86.44
2022-08-19T06:20:08.323Z,86.34
2022-08-19T06:21:08.265Z,86.54
2022-08-19T06:22:08.357Z,86.70
2022-08-19T06:23:11.235Z,86.10
2022-08-19T06:24:12.242Z,85.36
2022-08-19T06:25:08.254Z,84.81
2022-08-19T06:26:08.198Z,84.81
2022-08-19T06:27:08.203Z,84.61
2022-08-19T06:28:15.797Z,83.81
2022-08-19T06:29:09.158Z,83.15
2022-08-19T06:30:08.208Z,84.05
2022-08-19T06:31:08.141Z,84.35
2022-08-19T06:32:08.121Z,85.25
2022-08-19T06:33:08.099Z,84.99
2022-08-19T06:34:08.091Z,84.83
2022-08-19T06:35:08.082Z,85.64
2022-08-19T06:36:08.089Z,85.64
2022-08-19T06:37:08.053Z,85.74
2022-08-19T06:38:08.052Z,85.78
2022-08-19T06:39:08.024Z,85.78
2022-08-19T06:40:08.060Z,86.28
2022-08-19T06:41:08.226Z,86.63
2022-08-19T06:42:08.065Z,86.99
2022-08-19T06:43:10.975Z,87.19
2022-08-19T06:44:13.190Z,86.99
2022-08-19T06:45:09.327Z,86.99
2022-08-19T06:46:07.927Z,86.93
2022-08-19T06:47:14.278Z,87.02
2022-08-19T06:48:08.956Z,87.13
2022-08-19T06:49:07.887Z,87.02
2022-08-19T06:50:07.876Z,87.23
2022-08-19T06:51:08.761Z,87.77
2022-08-19T06:52:07.847Z,88.07
2022-08-19T06:53:07.829Z,88.07
2022-08-19T06:54:07.868Z,88.18
2022-08-19T06:55:08.833Z,88.22
2022-08-19T06:56:07.789Z,88.82
2022-08-19T06:57:07.779Z,88.88
2022-08-19T06:58:07.772Z,89.18
2022-08-19T06:59:07.780Z,88.58
2022-08-19T07:00:12.235Z,88.38
2022-08-19T07:01:09.293Z,88.58
2022-08-19T07:02:07.764Z,88.48
2022-08-19T07:03:13.291Z,88.68
2022-08-19T07:04:12.168Z,88.48
2022-08-19T07:05:07.664Z,88.38
2022-08-19T07:06:09.861Z,88.07
2022-08-19T07:07:20.211Z,87.77
2022-08-19T07:08:08.633Z,88.03
2022-08-19T07:09:07.675Z,88.18
2022-08-19T07:10:07.862Z,87.67
2022-08-19T07:11:09.235Z,87.98
2022-08-19T07:12:07.572Z,88.18
2022-08-19T07:13:07.555Z,87.57
2022-08-19T07:14:07.543Z,87.77
2022-08-19T07:15:08.686Z,88.18
2022-08-19T07:16:07.506Z,88.03
2022-08-19T07:17:07.518Z,87.47
2022-08-19T07:18:07.479Z,87.47
2022-08-19T07:19:13.010Z,87.77
2022-08-19T07:20:09.675Z,88.07
2022-08-19T07:21:09.461Z,88.07
2022-08-19T07:22:07.428Z,88.38
2022-08-19T07:23:16.001Z,88.88
2022-08-19T07:24:11.417Z,88.58
2022-08-19T07:25:07.383Z,88.58
2022-08-19T07:26:07.364Z,88.28
2022-08-19T07:27:10.360Z,88.34
2022-08-19T07:28:08.343Z,88.18
2022-08-19T07:29:08.324Z,88.13
2022-08-19T07:30:07.337Z,88.13
2022-08-19T07:31:07.311Z,87.93
2022-08-19T07:32:07.288Z,87.83
2022-08-19T07:33:07.268Z,87.93
2022-08-19T07:34:07.255Z,87.49
2022-08-19T07:35:07.287Z,87.08
2022-08-19T07:36:07.246Z,86.58
2022-08-19T07:37:07.217Z,86.43
2022-08-19T07:38:07.254Z,86.63
2022-08-19T07:39:07.190Z,86.43
2022-08-19T07:40:07.308Z,86.99
2022-08-19T07:41:07.166Z,86.79
2022-08-19T07:42:07.170Z,86.28
2022-08-19T07:43:13.614Z,86.28
2022-08-19T07:44:10.152Z,86.04
2022-08-19T07:45:07.111Z,85.74
2022-08-19T07:46:07.089Z,85.53
2022-08-19T07:47:07.072Z,84.69
2022-08-19T07:48:08.093Z,84.89
2022-08-19T07:49:07.049Z,84.59
2022-08-19T07:50:07.794Z,84.35
2022-08-19T07:51:07.023Z,83.85
2022-08-19T07:52:07.015Z,83.25
2022-08-19T07:53:07.022Z,83.65
2022-08-19T07:54:06.983Z,82.75
2022-08-19T07:55:06.975Z,82.54
2022-08-19T07:56:07.956Z,82.34
2022-08-19T07:57:06.938Z,82.10
2022-08-19T07:58:07.455Z,82.81
2022-08-19T07:59:06.917Z,82.60
2022-08-19T08:00:06.900Z,81.67
2022-08-19T08:01:06.911Z,80.70
2022-08-19T08:02:06.947Z,81.06
2022-08-19T08:03:09.977Z,80.66
2022-08-19T08:04:09.859Z,80.72
2022-08-19T08:05:06.857Z,80.32
2022-08-19T08:06:06.821Z,80.08
2022-08-19T08:07:06.810Z,79.28
2022-08-19T08:08:06.800Z,78.64
2022-08-19T08:09:07.051Z,77.94
2022-08-19T08:10:07.301Z,77.64
2022-08-19T08:11:08.322Z,77.28
2022-08-19T08:12:32.928Z,77.67
2022-08-19T08:13:10.150Z,78.78
2022-08-19T08:14:06.884Z,78.74
2022-08-19T08:15:08.337Z,77.80
2022-08-19T08:16:06.686Z,77.43
2022-08-19T08:17:10.912Z,75.29
2022-08-19T08:18:06.656Z,74.26
2022-08-19T08:19:14.722Z,73.96
2022-08-19T08:20:07.657Z,74.36
2022-08-19T08:21:06.647Z,73.66
2022-08-19T08:22:06.607Z,73.89
2022-08-19T08:23:09.641Z,74.39
2022-08-19T08:24:09.618Z,74.19
2022-08-19T08:25:06.750Z,73.99
2022-08-19T08:26:06.556Z,73.39
2022-08-19T08:27:11.080Z,73.96
2022-08-19T08:28:07.529Z,72.59
2022-08-19T08:29:12.211Z,74.09
2022-08-19T08:30:07.551Z,73.69
2022-08-19T08:31:09.466Z,73.09
2022-08-19T08:32:14.900Z,73.83
2022-08-19T08:33:07.515Z,74.26
2022-08-19T08:34:06.460Z,74.46
2022-08-19T08:35:06.436Z,75.56
2022-08-19T08:36:06.444Z,75.37
2022-08-19T08:37:06.434Z,75.56
2022-08-19T08:38:06.395Z,75.96
2022-08-19T08:39:06.380Z,75.96
2022-08-19T08:40:08.076Z,76.06
2022-08-19T08:41:06.401Z,76.56
2022-08-19T08:42:10.215Z,77.10
2022-08-19T08:43:11.203Z,77.91
2022-08-19T08:44:09.318Z,77.56
2022-08-19T08:45:07.298Z,77.26
2022-08-19T08:46:06.309Z,77.67
2022-08-19T08:47:07.900Z,77.03
2022-08-19T08:48:06.262Z,75.63
2022-08-19T08:49:07.242Z,76.23
2022-08-19T08:50:06.262Z,75.52
2022-08-19T08:51:06.243Z,75.87
2022-08-19T08:52:06.208Z,77.06
2022-08-19T08:53:06.193Z,76.06
2022-08-19T08:54:06.182Z,76.53
2022-08-19T08:55:10.247Z,75.63
2022-08-19T08:56:06.213Z,75.83
2022-08-19T08:57:06.149Z,75.52
2022-08-19T08:58:06.124Z,75.43
2022-08-19T08:59:06.115Z,74.93
2022-08-19T09:00:06.111Z,74.93
2022-08-19T09:01:07.172Z,74.93
2022-08-19T09:02:06.095Z,75.46
2022-08-19T09:03:09.056Z,75.16
2022-08-19T09:04:09.067Z,75.76
2022-08-19T09:05:06.030Z,76.67
2022-08-19T09:06:06.008Z,76.56
2022-08-19T09:07:17.930Z,76.37
2022-08-19T09:08:07.139Z,75.73
2022-08-19T09:09:11.761Z,75.02
2022-08-19T09:10:06.997Z,74.73
2022-08-19T09:11:05.940Z,75.33
2022-08-19T09:12:05.938Z,74.87
2022-08-19T09:13:09.180Z,75.93
2022-08-19T09:14:05.943Z,75.23
2022-08-19T09:15:05.894Z,75.13
2022-08-19T09:16:05.885Z,74.93
2022-08-19T09:17:05.879Z,74.69
2022-08-19T09:18:07.159Z,74.26
2022-08-19T09:19:06.459Z,73.56
2022-08-19T09:20:05.895Z,73.92
2022-08-19T09:21:05.816Z,72.78
2022-08-19T09:22:05.798Z,71.79
2022-08-19T09:23:08.804Z,73.49
2022-08-19T09:24:08.794Z,72.59
2022-08-19T09:25:05.767Z,72.19
2022-08-19T09:26:05.789Z,71.59
2022-08-19T09:27:16.006Z,73.09
2022-08-19T09:28:15.185Z,72.25
2022-08-19T09:29:06.725Z,72.25
2022-08-19T09:30:05.695Z,72.02
2022-08-19T09:31:05.681Z,70.16
2022-08-19T09:32:05.721Z,71.09
2022-08-19T09:33:06.662Z,71.79
2022-08-19T09:34:05.843Z,72.29
2022-08-19T09:35:08.713Z,72.59
2022-08-19T09:36:08.522Z,71.66
2022-08-19T09:37:05.602Z,71.52
2022-08-19T09:38:05.613Z,72.02
2022-08-19T09:39:05.574Z,71.69
2022-08-19T09:40:06.585Z,70.86
2022-08-19T09:41:05.544Z,70.42
2022-08-19T09:42:05.575Z,70.39
2022-08-19T09:43:10.007Z,68.96
2022-08-19T09:44:08.521Z,68.33
2022-08-19T09:45:05.503Z,67.86
2022-08-19T09:46:06.478Z,67.83
2022-08-19T09:47:05.469Z,68.16
2022-08-19T09:48:05.478Z,67.90
2022-08-19T09:49:06.547Z,68.70
2022-08-19T09:50:05.421Z,69.53
2022-08-19T09:51:05.412Z,69.43
2022-08-19T09:52:05.396Z,70.52
2022-08-19T09:53:05.381Z,70.36
2022-08-19T09:54:05.402Z,71.45
2022-08-19T09:55:07.118Z,69.46
2022-08-19T09:56:05.332Z,69.92
2022-08-19T09:57:05.330Z,70.03
2022-08-19T09:58:05.312Z,69.86
2022-08-19T09:59:05.324Z,70.36
2022-08-19T10:00:05.293Z,71.35
2022-08-19T10:01:05.329Z,70.65
2022-08-19T10:02:11.197Z,71.98
2022-08-19T10:03:09.246Z,71.69
2022-08-19T10:04:20.126Z,72.19
2022-08-19T10:05:06.221Z,71.52
2022-08-19T10:06:05.236Z,72.65
2022-08-19T10:07:06.201Z,72.95
2022-08-19T10:08:05.214Z,72.02
2022-08-19T10:09:06.168Z,71.72
2022-08-19T10:10:05.178Z,72.32
2022-08-19T10:11:28.210Z,71.48
2022-08-19T10:12:06.345Z,72.15
2022-08-19T10:13:06.139Z,71.75
2022-08-19T10:14:05.121Z,70.22
2022-08-19T10:15:05.121Z,70.65
2022-08-19T10:16:05.072Z,70.06
2022-08-19T10:17:19.320Z,69.76
2022-08-19T10:18:06.051Z,68.96
2022-08-19T10:19:05.948Z,69.36
2022-08-19T10:20:05.053Z,70.12
2022-08-19T10:21:05.003Z,68.43
2022-08-19T10:22:05.154Z,69.20
2022-08-19T10:23:08.975Z,69.39
2022-08-19T10:24:09.470Z,67.70
2022-08-19T10:25:04.954Z,69.13
2022-08-19T10:26:04.978Z,67.83
2022-08-19T10:27:04.938Z,67.83
2022-08-19T10:28:04.960Z,67.73
2022-08-19T10:29:05.930Z,68.73
2022-08-19T10:30:04.904Z,68.73
2022-08-19T10:31:05.883Z,69.43
2022-08-19T10:32:04.872Z,69.79
2022-08-19T10:33:08.435Z,69.16
2022-08-19T10:34:05.892Z,68.37
2022-08-19T10:35:06.036Z,67.27
2022-08-19T10:36:04.844Z,67.57
2022-08-19T10:37:04.813Z,67.86
2022-08-19T10:38:05.951Z,68.07
2022-08-19T10:39:04.774Z,66.91
2022-08-19T10:40:04.822Z,68.37
2022-08-19T10:41:04.770Z,67.57
2022-08-19T10:42:04.747Z,67.37
2022-08-19T10:43:07.749Z,68.27
2022-08-19T10:44:07.778Z,67.24
2022-08-19T10:45:04.972Z,67.14
2022-08-19T10:46:04.740Z,68.20
2022-08-19T10:47:17.942Z,68.00
2022-08-19T10:48:05.721Z,65.52
2022-08-19T10:49:04.633Z,66.14
2022-08-19T10:50:04.814Z,67.57
2022-08-19T10:51:04.642Z,68.20
2022-08-19T10:52:04.614Z,67.70
2022-08-19T10:53:08.083Z,66.80
2022-08-19T10:54:06.812Z,67.30
2022-08-19T10:55:08.485Z,67.77
2022-08-19T10:56:04.579Z,66.97
2022-08-19T10:57:04.517Z,66.27
2022-08-19T10:58:04.707Z,67.17
2022-08-19T10:59:04.518Z,68.86
2022-08-19T11:00:04.499Z,68.53
2022-08-19T11:01:04.572Z,67.70
2022-08-19T11:02:04.459Z,67.21
2022-08-19T11:03:07.438Z,67.00
2022-08-19T11:04:07.459Z,66.58
2022-08-19T11:05:12.342Z,66.97
2022-08-19T11:06:05.443Z,65.28
2022-08-19T11:07:04.391Z,65.12
2022-08-19T11:08:04.402Z,65.72
2022-08-19T11:09:05.363Z,65.12
2022-08-19T11:10:04.412Z,66.61
2022-08-19T11:11:04.347Z,65.02
2022-08-19T11:12:05.019Z,64.69
2022-08-19T11:13:04.314Z,64.29
2022-08-19T11:14:04.305Z,63.86
2022-08-19T11:15:04.284Z,63.96
2022-08-19T11:16:07.647Z,63.86
2022-08-19T11:17:04.259Z,65.22
2022-08-19T11:18:04.246Z,65.12
2022-08-19T11:19:04.242Z,65.29
2022-08-19T11:20:04.269Z,62.87
2022-08-19T11:21:04.212Z,63.89
2022-08-19T11:22:04.188Z,63.60
2022-08-19T11:23:07.189Z,63.49
2022-08-19T11:24:07.169Z,64.39
2022-08-19T11:25:04.151Z,65.85
2022-08-19T11:26:04.290Z,65.75
2022-08-19T11:27:04.121Z,63.46
2022-08-19T11:28:04.111Z,64.36
2022-08-19T11:29:04.094Z,63.67
2022-08-19T11:30:04.082Z,63.17
2022-08-19T11:31:04.093Z,64.09
2022-08-19T11:32:04.099Z,65.58
2022-08-19T11:33:04.075Z,65.16
2022-08-19T11:34:04.042Z,63.34
2022-08-19T11:35:04.014Z,63.90
2022-08-19T11:36:04.006Z,63.83
2022-08-19T11:37:03.994Z,62.24
2022-08-19T11:38:07.174Z,61.85
2022-08-19T11:39:04.965Z,62.51
2022-08-19T11:40:04.061Z,61.12
2022-08-19T11:41:03.950Z,62.61
2022-08-19T11:42:03.988Z,62.21
2022-08-19T11:43:06.909Z,62.41
2022-08-19T11:44:06.921Z,62.81
2022-08-19T11:45:03.886Z,63.18
2022-08-19T11:46:03.870Z,62.98
2022-08-19T11:47:09.098Z,61.69
2022-08-19T11:48:04.875Z,60.89
2022-08-19T11:49:03.833Z,62.85
2022-08-19T11:50:03.822Z,61.36
2022-08-19T11:51:03.836Z,60.89
2022-08-19T11:52:03.833Z,60.40
2022-08-19T11:53:03.812Z,61.29
2022-08-19T11:54:03.802Z,58.72
2022-08-19T11:55:03.745Z,59.51
2022-08-19T11:56:03.735Z,59.51
2022-08-19T11:57:03.725Z,60.20
2022-08-19T11:58:03.718Z,62.18
2022-08-19T11:59:03.725Z,61.76
2022-08-19T12:00:03.688Z,61.86
2022-08-19T12:01:04.653Z,61.26
2022-08-19T12:02:03.689Z,60.05
2022-08-19T12:03:06.680Z,59.15
2022-08-19T12:04:06.701Z,59.25
2022-08-19T12:05:03.629Z,59.65
2022-08-19T12:06:05.112Z,61.93
2022-08-19T12:07:03.600Z,61.90
2022-08-19T12:08:03.602Z,59.81
2022-08-19T12:09:03.573Z,59.19
2022-08-19T12:10:03.698Z,58.03
2022-08-19T12:11:04.303Z,59.75
2022-08-19T12:12:03.563Z,60.64
2022-08-19T12:13:03.535Z,59.25
2022-08-19T12:14:03.516Z,60.24
2022-08-19T12:15:03.505Z,59.28
2022-08-19T12:16:04.256Z,61.04
2022-08-19T12:17:03.465Z,58.88
2022-08-19T12:18:03.475Z,59.38
2022-08-19T12:19:03.436Z,59.31
2022-08-19T12:20:03.421Z,59.70
2022-08-19T12:21:04.869Z,60.50
2022-08-19T12:22:03.507Z,61.72
2022-08-19T12:23:06.410Z,61.91
2022-08-19T12:24:06.390Z,61.12
2022-08-19T12:25:03.352Z,60.23
2022-08-19T12:26:04.103Z,59.80
2022-08-19T12:27:03.402Z,61.29
2022-08-19T12:28:04.021Z,60.20
2022-08-19T12:29:03.294Z,61.39
2022-08-19T12:30:03.283Z,60.20
2022-08-19T12:31:04.047Z,60.57
2022-08-19T12:32:05.018Z,60.40
2022-08-19T12:33:03.288Z,59.44
2022-08-19T12:34:03.250Z,59.70
2022-08-19T12:35:03.217Z,59.74
2022-08-19T12:36:03.976Z,60.53
2022-08-19T12:37:03.228Z,61.39
2022-08-19T12:38:03.240Z,60.40
2022-08-19T12:39:03.170Z,60.60
2022-08-19T12:40:03.327Z,61.26
2022-08-19T12:41:03.903Z,59.88
2022-08-19T12:42:03.143Z,59.94
2022-08-19T12:43:06.140Z,60.14
2022-08-19T12:44:06.122Z,58.56
2022-08-19T12:45:03.081Z,59.67
2022-08-19T12:46:03.822Z,58.88
2022-08-19T12:47:03.534Z,59.97
2022-08-19T12:48:03.488Z,60.47
2022-08-19T12:49:06.226Z,60.27
2022-08-19T12:50:06.935Z,60.10
2022-08-19T12:51:03.782Z,59.91
2022-08-19T12:52:03.005Z,60.50